EWG7KG LKPR-EDDL
Flight info
| Callsign | EWG7KG |
|---|---|
| Flight time | N/A |
| Altitude | 32000 |
| Route | BALTU DCT DONAD DCT RAPET T843 VELIS DCT AMETU T852 TINSA T854 DOMUX DOMUX1A |
| Aircraft | A320/M-SDE3FGHIRWY/LB1 |
Departure
| Time | 2026-05-05 17:33 |
|---|---|
| Airport | Václav Havel Airport Prague (LKPR) |
Arrival
| Time | N/A |
|---|---|
| Airport | Düsseldorf Airport (EDDL) |
| Time | Latitude | Longitude | Altitude | Speed | Heading |
|---|---|---|---|---|---|
| 2026-05-05 17:03 | 50.10487 | 14.26483 | 1170 ft | 0 kts | 34° |
| 2026-05-05 17:25 | 50.10468 | 14.26462 | 1171 ft | 4 kts | 33° |
| 2026-05-05 17:25 | 50.10448 | 14.26447 | 1170 ft | 4 kts | 337° |
| 2026-05-05 17:26 | 50.10435 | 14.26470 | 1169 ft | 4 kts | 304° |
| 2026-05-05 17:26 | 50.10423 | 14.26498 | 1171 ft | 0 kts | 304° |
| 2026-05-05 17:29 | 50.10450 | 14.26438 | 1170 ft | 17 kts | 305° |
| 2026-05-05 17:29 | 50.10526 | 14.26259 | 1171 ft | 15 kts | 297° |
| 2026-05-05 17:29 | 50.10531 | 14.26103 | 1170 ft | 16 kts | 260° |
| 2026-05-05 17:30 | 50.10517 | 14.25990 | 1170 ft | 15 kts | 262° |
| 2026-05-05 17:30 | 50.10561 | 14.25840 | 1175 ft | 19 kts | 303° |
| 2026-05-05 17:30 | 50.10633 | 14.25652 | 1175 ft | 19 kts | 298° |
| 2026-05-05 17:30 | 50.10600 | 14.25483 | 1171 ft | 16 kts | 250° |
| 2026-05-05 17:31 | 50.10578 | 14.25320 | 1172 ft | 12 kts | 259° |
| 2026-05-05 17:31 | 50.10575 | 14.25290 | 1169 ft | 1 kts | 259° |
| 2026-05-05 17:31 | 50.10573 | 14.25276 | 1170 ft | 2 kts | 259° |
| 2026-05-05 17:31 | 50.10566 | 14.25219 | 1170 ft | 13 kts | 258° |
| 2026-05-05 17:32 | 50.10528 | 14.25119 | 1168 ft | 8 kts | 181° |
| 2026-05-05 17:32 | 50.10504 | 14.25153 | 1170 ft | 0 kts | 129° |
| 2026-05-05 17:32 | 50.10476 | 14.25207 | 1170 ft | 28 kts | 128° |
| 2026-05-05 17:33 | 50.10213 | 14.25752 | 1185 ft | 96 kts | 127° |
| 2026-05-05 17:33 | 50.09693 | 14.26825 | 1210 ft | 148 kts | 127° |
| 2026-05-05 17:33 | 50.09036 | 14.28178 | 1702 ft | 156 kts | 123° |
| 2026-05-05 17:33 | 50.08379 | 14.29556 | 2331 ft | 161 kts | 120° |
| 2026-05-05 17:34 | 50.07689 | 14.31019 | 2732 ft | 176 kts | 123° |
| 2026-05-05 17:34 | 50.06949 | 14.32611 | 3150 ft | 188 kts | 123° |
| 2026-05-05 17:34 | 50.06178 | 14.34282 | 3642 ft | 196 kts | 123° |
| 2026-05-05 17:34 | 50.05361 | 14.36068 | 4223 ft | 203 kts | 124° |
| 2026-05-05 17:35 | 50.04537 | 14.37877 | 4831 ft | 207 kts | 124° |
| 2026-05-05 17:35 | 50.03698 | 14.39728 | 5433 ft | 212 kts | 125° |
| 2026-05-05 17:35 | 50.02796 | 14.41647 | 5711 ft | 230 kts | 128° |
| 2026-05-05 17:35 | 50.01730 | 14.43711 | 5979 ft | 257 kts | 129° |